createdAt,value
2023-08-08T00:00:36.511Z,2.33
2023-08-08T00:03:06.572Z,2.40
2023-08-08T00:05:34.567Z,2.20
2023-08-08T00:08:02.619Z,2.40
2023-08-08T00:10:30.564Z,2.30
2023-08-08T00:12:58.539Z,2.30
2023-08-08T00:15:26.578Z,2.50
2023-08-08T00:17:54.570Z,2.37
2023-08-08T00:20:23.914Z,2.60
2023-08-08T00:22:51.873Z,2.40
2023-08-08T00:25:19.916Z,2.40
2023-08-08T00:27:47.927Z,2.27
2023-08-08T00:30:15.906Z,2.40
2023-08-08T00:32:43.887Z,2.63
2023-08-08T00:35:11.941Z,2.40
2023-08-08T00:37:41.237Z,2.37
2023-08-08T00:40:10.333Z,2.20
2023-08-08T00:42:38.311Z,2.30
2023-08-08T00:45:06.879Z,2.60
2023-08-08T00:47:35.214Z,2.80
2023-08-08T00:50:03.658Z,2.13
2023-08-08T00:52:31.657Z,2.40
2023-08-08T00:55:01.162Z,2.57
2023-08-08T00:57:29.063Z,2.50
2023-08-08T00:59:57.004Z,2.33
2023-08-08T01:02:24.996Z,2.47
2023-08-08T01:04:52.970Z,3.10
2023-08-08T01:07:25.513Z,2.53
2023-08-08T01:09:57.108Z,3.17
2023-08-08T01:12:26.844Z,2.80
2023-08-08T01:14:54.863Z,3.10
2023-08-08T01:17:22.856Z,2.93
2023-08-08T01:19:50.953Z,2.70
2023-08-08T01:22:25.196Z,2.73
2023-08-08T01:24:54.671Z,2.57
2023-08-08T01:27:22.585Z,2.30
2023-08-08T01:29:50.574Z,2.30
2023-08-08T01:32:18.483Z,2.70
2023-08-08T01:34:46.449Z,2.60
2023-08-08T01:37:17.184Z,2.70
2023-08-08T01:39:45.144Z,2.60
2023-08-08T01:42:14.603Z,2.70
2023-08-08T01:44:43.376Z,2.40
2023-08-08T01:47:11.357Z,2.47
2023-08-08T01:49:39.275Z,2.70
2023-08-08T01:52:07.760Z,2.60
2023-08-08T01:54:35.726Z,2.60
2023-08-08T01:57:03.682Z,2.43
2023-08-08T01:59:33.073Z,2.87
2023-08-08T02:02:01.201Z,2.90
2023-08-08T02:04:29.719Z,2.73
2023-08-08T02:06:57.656Z,2.87
2023-08-08T02:09:25.588Z,3.00
2023-08-08T02:11:53.537Z,2.93
2023-08-08T02:14:21.564Z,3.30
2023-08-08T02:16:50.989Z,2.70
2023-08-08T02:19:18.883Z,2.63
2023-08-08T02:21:46.795Z,2.77
2023-08-08T02:24:14.766Z,2.70
2023-08-08T02:26:42.692Z,2.67
2023-08-08T02:29:10.631Z,2.70
2023-08-08T02:31:38.619Z,3.10
2023-08-08T02:34:07.860Z,3.00
2023-08-08T02:36:35.943Z,2.80
2023-08-08T02:39:04.369Z,3.07
2023-08-08T02:41:32.264Z,2.83
2023-08-08T02:44:00.175Z,2.83
2023-08-08T02:46:28.100Z,2.53
2023-08-08T02:48:56.150Z,2.67
2023-08-08T02:51:25.467Z,3.00
2023-08-08T02:53:53.404Z,2.80
2023-08-08T02:56:21.389Z,2.87
2023-08-08T02:58:49.396Z,2.80
2023-08-08T03:01:17.652Z,3.00
2023-08-08T03:03:45.604Z,3.03
2023-08-08T03:06:13.541Z,3.37
2023-08-08T03:08:41.823Z,2.90
2023-08-08T03:11:09.800Z,2.90
2023-08-08T03:13:38.371Z,3.20
2023-08-08T03:16:06.610Z,3.03
2023-08-08T03:18:34.652Z,3.10
2023-08-08T03:21:02.618Z,3.37
2023-08-08T03:23:32.036Z,3.17
2023-08-08T03:26:01.408Z,2.90
2023-08-08T03:28:29.373Z,3.60
2023-08-08T03:30:57.372Z,3.00
2023-08-08T03:33:25.413Z,3.20
2023-08-08T03:35:53.335Z,3.20
2023-08-08T03:38:21.257Z,3.00
2023-08-08T03:40:49.170Z,2.90
2023-08-08T03:43:18.512Z,3.43
2023-08-08T03:45:47.705Z,3.17
2023-08-08T03:48:15.771Z,3.23
2023-08-08T03:50:43.745Z,3.37
2023-08-08T03:53:11.672Z,3.37
2023-08-08T03:55:39.655Z,3.10
2023-08-08T03:58:07.656Z,2.60
2023-08-08T04:00:37.330Z,2.87
2023-08-08T04:03:05.565Z,3.10
2023-08-08T04:05:33.596Z,3.20
2023-08-08T04:08:01.538Z,2.73
2023-08-08T04:10:29.512Z,2.63
2023-08-08T04:12:57.473Z,2.80
2023-08-08T04:15:25.536Z,3.00
2023-08-08T04:17:54.819Z,3.00
2023-08-08T04:20:22.797Z,2.97
2023-08-08T04:22:50.711Z,3.20
2023-08-08T04:25:18.837Z,3.20
2023-08-08T04:27:46.764Z,3.10
2023-08-08T04:30:15.313Z,2.87
2023-08-08T04:32:43.238Z,3.10
2023-08-08T04:35:12.603Z,3.30
2023-08-08T04:37:41.102Z,3.20
2023-08-08T04:40:10.655Z,2.90
2023-08-08T04:42:38.656Z,2.80
2023-08-08T04:45:08.418Z,2.90
2023-08-08T04:47:36.453Z,2.90
2023-08-08T04:50:04.662Z,3.00
2023-08-08T04:52:35.055Z,2.90
2023-08-08T04:55:02.995Z,3.10
2023-08-08T04:57:30.971Z,2.87
2023-08-08T04:59:59.037Z,2.77
2023-08-08T05:02:27.006Z,2.97
2023-08-08T05:04:55.057Z,2.60
2023-08-08T05:07:23.100Z,2.90
2023-08-08T05:09:53.073Z,2.60
2023-08-08T05:12:21.247Z,2.73
2023-08-08T05:14:49.296Z,2.77
2023-08-08T05:17:17.447Z,2.70
2023-08-08T05:19:45.679Z,2.70
2023-08-08T05:22:13.736Z,2.87
2023-08-08T05:24:42.246Z,2.70
2023-08-08T05:27:12.769Z,2.53
2023-08-08T05:29:42.156Z,2.80
2023-08-08T05:32:10.327Z,2.60
2023-08-08T05:34:38.249Z,2.67
2023-08-08T05:37:16.473Z,2.67
2023-08-08T05:39:46.187Z,2.67
2023-08-08T05:42:15.682Z,2.67
2023-08-08T05:44:44.256Z,2.30
2023-08-08T05:47:12.320Z,2.50
2023-08-08T05:49:42.873Z,2.60
2023-08-08T05:52:11.484Z,3.00
2023-08-08T05:54:39.657Z,2.60
2023-08-08T05:57:08.606Z,2.60
2023-08-08T05:59:38.100Z,2.40
2023-08-08T06:02:07.055Z,2.30
2023-08-08T06:04:36.385Z,2.50
2023-08-08T06:07:05.138Z,2.50
2023-08-08T06:09:34.434Z,2.50
2023-08-08T06:12:02.789Z,2.10
2023-08-08T06:14:30.965Z,1.93
2023-08-08T06:17:00.912Z,2.20
2023-08-08T06:19:30.073Z,2.17
2023-08-08T06:21:58.386Z,1.97
2023-08-08T06:24:26.864Z,2.00
2023-08-08T06:26:54.942Z,2.50
2023-08-08T06:29:22.905Z,2.10
2023-08-08T06:31:50.914Z,1.60
2023-08-08T06:34:20.320Z,2.20
2023-08-08T06:36:48.979Z,1.57
2023-08-08T06:39:16.922Z,1.80
2023-08-08T06:41:44.897Z,1.80
2023-08-08T06:44:12.974Z,1.60
2023-08-08T06:46:40.965Z,1.50
2023-08-08T06:49:10.057Z,1.60
2023-08-08T06:51:42.508Z,1.53
2023-08-08T06:54:16.895Z,1.60
2023-08-08T06:56:45.923Z,1.30
2023-08-08T06:59:13.991Z,1.33
2023-08-08T07:01:42.723Z,1.67
2023-08-08T07:04:10.846Z,1.70
2023-08-08T07:06:49.012Z,2.20
2023-08-08T07:09:17.808Z,1.70
2023-08-08T07:11:46.882Z,1.67
2023-08-08T07:14:16.477Z,1.60
2023-08-08T07:16:48.739Z,1.50
2023-08-08T07:19:18.272Z,1.17
2023-08-08T07:21:49.144Z,1.60
2023-08-08T07:24:18.454Z,1.20
2023-08-08T07:26:46.783Z,1.30
2023-08-08T07:29:15.755Z,1.20
2023-08-08T07:31:43.764Z,1.43
2023-08-08T07:34:11.947Z,1.00
2023-08-08T07:36:39.923Z,1.20
2023-08-08T07:39:10.587Z,1.00
2023-08-08T07:41:38.700Z,1.57
2023-08-08T07:44:06.880Z,1.30
2023-08-08T07:46:34.850Z,1.20
2023-08-08T07:49:04.710Z,1.80
2023-08-08T07:51:32.764Z,1.33
2023-08-08T07:54:01.544Z,1.30
2023-08-08T07:56:31.076Z,1.40
2023-08-08T07:58:59.106Z,1.80
2023-08-08T08:01:28.321Z,1.20
2023-08-08T08:03:56.456Z,1.10
2023-08-08T08:06:24.437Z,1.33
2023-08-08T08:08:52.337Z,1.20
2023-08-08T08:11:20.716Z,1.30
2023-08-08T08:13:50.185Z,1.00
2023-08-08T08:16:18.187Z,1.33
2023-08-08T08:18:46.176Z,1.37
2023-08-08T08:21:15.466Z,1.30
2023-08-08T08:23:43.441Z,1.30
2023-08-08T08:26:11.509Z,1.00
2023-08-08T08:28:40.985Z,1.20
2023-08-08T08:31:10.534Z,1.10
2023-08-08T08:33:38.625Z,2.03
2023-08-08T08:36:07.061Z,1.20
2023-08-08T08:38:35.005Z,1.00
2023-08-08T08:41:02.929Z,1.20
2023-08-08T08:43:30.938Z,1.10
2023-08-08T08:45:58.939Z,1.10
2023-08-08T08:48:28.347Z,0.90
2023-08-08T08:50:56.996Z,0.90
2023-08-08T08:53:24.938Z,1.07
2023-08-08T08:55:53.184Z,0.90
2023-08-08T08:58:21.106Z,1.20
2023-08-08T09:00:49.496Z,1.00
2023-08-08T09:03:17.825Z,1.10
2023-08-08T09:05:47.311Z,1.10
2023-08-08T09:08:16.299Z,1.10
2023-08-08T09:10:44.390Z,1.30
2023-08-08T09:13:12.609Z,1.10
2023-08-08T09:15:40.979Z,1.20
2023-08-08T09:18:09.328Z,1.20
2023-08-08T09:20:37.345Z,1.10
2023-08-08T09:23:07.219Z,1.10
2023-08-08T09:25:35.186Z,1.00
2023-08-08T09:28:03.105Z,1.10
2023-08-08T09:30:33.714Z,1.17
2023-08-08T09:33:02.519Z,1.30
2023-08-08T09:35:31.328Z,1.20
2023-08-08T09:37:59.281Z,1.17
2023-08-08T09:40:28.574Z,1.00
2023-08-08T09:42:56.532Z,1.10
2023-08-08T09:45:24.917Z,1.13
2023-08-08T09:47:53.447Z,1.17
2023-08-08T09:50:21.600Z,0.70
2023-08-08T09:52:49.732Z,0.60
2023-08-08T09:55:17.678Z,0.60
2023-08-08T09:57:47.032Z,0.77
2023-08-08T10:00:18.017Z,0.60
2023-08-08T10:02:46.600Z,0.60
2023-08-08T10:05:15.018Z,0.60
2023-08-08T10:07:42.972Z,0.57
2023-08-08T10:10:11.849Z,0.80
2023-08-08T10:12:40.212Z,0.73
2023-08-08T10:15:11.252Z,0.83
2023-08-08T10:17:39.786Z,0.60
2023-08-08T10:20:12.690Z,0.80
2023-08-08T10:22:44.149Z,0.67
2023-08-08T10:25:19.288Z,0.73
2023-08-08T10:27:47.301Z,0.70
2023-08-08T10:30:17.193Z,0.80
2023-08-08T10:32:47.688Z,0.73
2023-08-08T10:35:15.781Z,1.10
2023-08-08T10:37:54.212Z,1.58
2023-08-08T10:40:22.248Z,1.50
2023-08-08T10:42:50.220Z,1.35
2023-08-08T10:45:19.622Z,1.48
2023-08-08T10:47:47.656Z,1.50
2023-08-08T10:50:16.924Z,1.48
2023-08-08T10:52:55.491Z,1.17
2023-08-08T10:55:24.194Z,1.35
2023-08-08T10:57:59.493Z,1.20
2023-08-08T11:00:30.727Z,1.60
2023-08-08T11:02:59.139Z,1.38
2023-08-08T11:05:27.538Z,1.60
2023-08-08T11:07:55.883Z,1.67
2023-08-08T11:10:24.499Z,1.40
2023-08-08T11:12:59.817Z,1.70
2023-08-08T11:15:29.678Z,1.40
2023-08-08T11:17:57.898Z,1.60
2023-08-08T11:20:26.022Z,1.60
2023-08-08T11:22:54.837Z,1.77
2023-08-08T11:25:23.106Z,1.47
2023-08-08T11:27:52.322Z,1.45
2023-08-08T11:30:20.382Z,1.70
2023-08-08T11:33:15.162Z,1.40
2023-08-08T11:35:39.036Z,1.85
2023-08-08T11:38:07.141Z,1.30
2023-08-08T11:40:35.491Z,1.43
2023-08-08T11:43:03.548Z,1.20
2023-08-08T11:45:34.181Z,1.50
2023-08-08T11:48:04.211Z,1.25
2023-08-08T11:50:32.316Z,1.50
2023-08-08T11:53:00.298Z,1.30
2023-08-08T11:55:31.079Z,1.20
2023-08-08T11:58:00.814Z,0.90
2023-08-08T12:00:30.099Z,0.97
2023-08-08T12:02:58.390Z,1.10
2023-08-08T12:05:29.168Z,0.93
2023-08-08T12:07:57.306Z,1.30
2023-08-08T12:10:25.975Z,1.17
2023-08-08T12:13:00.876Z,0.87
2023-08-08T12:15:31.195Z,0.60
2023-08-08T12:18:00.233Z,0.80
2023-08-08T12:20:32.055Z,0.80
2023-08-08T12:23:00.034Z,0.70
2023-08-08T12:25:28.533Z,0.80
2023-08-08T12:27:56.639Z,0.80
2023-08-08T12:30:24.703Z,1.00
2023-08-08T12:32:52.693Z,1.20
2023-08-08T12:35:21.555Z,1.30
2023-08-08T12:37:50.919Z,1.00
2023-08-08T12:40:19.107Z,1.30
2023-08-08T12:42:47.063Z,1.30
2023-08-08T12:45:15.203Z,1.10
2023-08-08T12:47:43.275Z,1.37
2023-08-08T12:50:12.212Z,1.37
2023-08-08T12:52:40.635Z,1.20
2023-08-08T12:55:12.923Z,1.00
2023-08-08T12:57:41.703Z,1.20
2023-08-08T13:00:11.125Z,1.20
2023-08-08T13:02:39.844Z,1.40
2023-08-08T13:05:08.219Z,1.43
2023-08-08T13:07:36.156Z,1.10
2023-08-08T13:10:04.161Z,0.93
2023-08-08T13:12:33.444Z,0.93
2023-08-08T13:15:01.467Z,0.80
2023-08-08T13:17:29.507Z,1.07
2023-08-08T13:19:57.504Z,1.00
2023-08-08T13:22:25.546Z,1.03
2023-08-08T13:24:53.511Z,1.00
2023-08-08T13:27:21.466Z,1.03
2023-08-08T13:29:50.779Z,1.40
2023-08-08T13:32:18.876Z,0.93
2023-08-08T13:34:46.910Z,1.00
2023-08-08T13:37:14.840Z,1.10
2023-08-08T13:39:43.071Z,0.90
2023-08-08T13:42:11.230Z,1.03
2023-08-08T13:44:39.191Z,0.90
2023-08-08T13:47:08.690Z,0.90
2023-08-08T13:49:37.281Z,1.03
2023-08-08T13:52:05.470Z,1.10
2023-08-08T13:54:33.504Z,1.17
2023-08-08T13:57:01.476Z,1.20
2023-08-08T13:59:29.441Z,1.70
2023-08-08T14:01:57.588Z,1.60
2023-08-08T14:04:27.049Z,1.70
2023-08-08T14:06:54.972Z,1.60
2023-08-08T14:09:24.011Z,1.80
2023-08-08T14:11:52.029Z,2.03
2023-08-08T14:14:19.977Z,1.23
2023-08-08T14:16:47.951Z,1.00
2023-08-08T14:19:18.023Z,1.27
2023-08-08T14:21:47.375Z,1.70
2023-08-08T14:24:15.459Z,1.30
2023-08-08T14:26:43.398Z,1.10
2023-08-08T14:29:11.312Z,1.30
2023-08-08T14:31:50.411Z,1.83
2023-08-08T14:34:31.673Z,1.20
2023-08-08T14:37:01.091Z,1.63
2023-08-08T14:39:32.522Z,1.60
2023-08-08T14:42:00.844Z,1.58
2023-08-08T14:44:29.326Z,1.73
2023-08-08T14:46:57.327Z,1.80
2023-08-08T14:49:26.992Z,1.30
2023-08-08T14:51:55.110Z,1.10
2023-08-08T14:54:24.505Z,1.10
2023-08-08T14:56:52.656Z,1.17
2023-08-08T14:59:20.719Z,1.10
2023-08-08T15:01:48.964Z,1.23
2023-08-08T15:04:17.058Z,1.38
2023-08-08T15:06:45.000Z,1.00
2023-08-08T15:09:14.491Z,1.30
2023-08-08T15:11:43.947Z,1.10
2023-08-08T15:14:11.972Z,0.90
2023-08-08T15:16:39.940Z,1.30
2023-08-08T15:19:08.317Z,1.20
2023-08-08T15:21:36.402Z,1.50
2023-08-08T15:24:04.306Z,1.30
2023-08-08T15:26:32.289Z,1.48
2023-08-08T15:29:02.026Z,0.80
2023-08-08T15:31:30.186Z,1.30
2023-08-08T15:33:58.279Z,1.33
2023-08-08T15:36:26.507Z,1.38
2023-08-08T15:38:55.544Z,1.58
2023-08-08T15:41:23.668Z,1.60
2023-08-08T15:43:51.787Z,1.40
2023-08-08T15:46:21.286Z,1.50
2023-08-08T15:48:49.371Z,1.35
2023-08-08T15:51:17.344Z,1.42
2023-08-08T15:53:45.285Z,1.00
2023-08-08T15:56:13.198Z,1.20
2023-08-08T15:58:41.572Z,1.40
2023-08-08T16:01:09.572Z,0.90
2023-08-08T16:03:39.452Z,1.10
2023-08-08T16:06:07.611Z,1.38
2023-08-08T16:08:35.772Z,1.30
2023-08-08T16:11:05.579Z,1.27
2023-08-08T16:13:33.639Z,1.00
2023-08-08T16:16:02.127Z,1.25
2023-08-08T16:18:30.531Z,1.42
2023-08-08T16:21:01.359Z,1.30
2023-08-08T16:23:29.368Z,1.40
2023-08-08T16:25:57.730Z,1.60
2023-08-08T16:28:27.236Z,1.20
2023-08-08T16:30:55.215Z,1.33
2023-08-08T16:33:23.225Z,1.60
2023-08-08T16:35:51.530Z,1.67
2023-08-08T16:38:20.869Z,1.60
2023-08-08T16:40:48.858Z,1.53
2023-08-08T16:43:19.395Z,1.73
2023-08-08T16:45:47.341Z,1.63
2023-08-08T16:48:15.712Z,2.30
2023-08-08T16:50:43.680Z,1.20
2023-08-08T16:53:11.629Z,1.50
2023-08-08T16:55:42.955Z,1.40
2023-08-08T16:58:11.093Z,1.20
2023-08-08T17:00:39.201Z,1.63
2023-08-08T17:03:07.395Z,1.33
2023-08-08T17:05:36.166Z,1.10
2023-08-08T17:08:06.119Z,1.10
2023-08-08T17:10:34.074Z,1.10
2023-08-08T17:13:03.426Z,1.02
2023-08-08T17:15:31.377Z,1.00
2023-08-08T17:17:59.480Z,0.90
2023-08-08T17:20:27.502Z,1.00
2023-08-08T17:22:55.850Z,1.30
2023-08-08T17:25:23.809Z,1.20
2023-08-08T17:27:51.967Z,1.20
2023-08-08T17:30:21.378Z,1.40
2023-08-08T17:32:49.399Z,1.27
2023-08-08T17:35:17.514Z,1.40
2023-08-08T17:37:45.568Z,1.60
2023-08-08T17:40:13.794Z,2.00
2023-08-08T17:42:41.797Z,1.53
2023-08-08T17:45:11.085Z,1.60
2023-08-08T17:47:40.588Z,2.00
2023-08-08T17:50:09.968Z,1.73
2023-08-08T17:52:37.925Z,1.70
2023-08-08T17:55:06.598Z,2.00
2023-08-08T17:57:34.577Z,2.07
2023-08-08T18:00:03.023Z,1.80
2023-08-08T18:02:31.067Z,1.83
2023-08-08T18:05:00.432Z,1.80
2023-08-08T18:07:28.449Z,1.87
2023-08-08T18:09:56.503Z,1.77
2023-08-08T18:12:24.517Z,1.80
2023-08-08T18:14:54.245Z,1.50
2023-08-08T18:17:23.309Z,1.90
2023-08-08T18:19:51.411Z,2.10
2023-08-08T18:22:20.722Z,2.00
2023-08-08T18:24:48.679Z,2.00
2023-08-08T18:27:17.387Z,2.20
2023-08-08T18:29:45.509Z,1.93
2023-08-08T18:32:13.431Z,2.30
2023-08-08T18:34:41.486Z,2.00
2023-08-08T18:37:09.474Z,2.07
2023-08-08T18:39:38.852Z,2.10
2023-08-08T18:42:07.518Z,2.50
2023-08-08T18:44:35.502Z,2.40
2023-08-08T18:47:03.399Z,2.30
2023-08-08T18:49:31.767Z,2.00
2023-08-08T18:51:59.999Z,2.63
2023-08-08T18:54:28.611Z,2.60
2023-08-08T18:56:57.889Z,3.30
2023-08-08T18:59:26.031Z,3.07
2023-08-08T19:01:54.253Z,2.67
2023-08-08T19:04:22.381Z,2.73
2023-08-08T19:06:50.576Z,3.17
2023-08-08T19:09:20.203Z,3.20
2023-08-08T19:11:48.233Z,3.00
2023-08-08T19:14:17.692Z,3.43
2023-08-08T19:16:45.634Z,3.77
2023-08-08T19:19:14.094Z,3.70
2023-08-08T19:21:42.169Z,4.63
2023-08-08T19:24:10.796Z,4.77
2023-08-08T19:26:38.806Z,4.93
2023-08-08T19:29:06.805Z,4.33
2023-08-08T19:31:36.436Z,5.33
2023-08-08T19:34:06.787Z,5.13
2023-08-08T19:36:35.552Z,5.30
2023-08-08T19:39:03.687Z,5.47
2023-08-08T19:41:31.647Z,5.30
2023-08-08T19:43:59.649Z,5.53
2023-08-08T19:46:27.677Z,5.13
2023-08-08T19:48:57.175Z,5.10
2023-08-08T19:51:25.201Z,4.67
2023-08-08T19:53:53.273Z,4.53
2023-08-08T19:56:21.261Z,4.23
2023-08-08T19:58:49.554Z,4.33
2023-08-08T20:01:17.939Z,3.80
2023-08-08T20:03:46.029Z,3.80
2023-08-08T20:06:15.450Z,3.20
2023-08-08T20:08:43.611Z,2.73
2023-08-08T20:11:11.922Z,2.53
2023-08-08T20:13:39.953Z,2.40
2023-08-08T20:16:08.077Z,2.30
2023-08-08T20:18:36.212Z,2.43
2023-08-08T20:21:04.205Z,1.80
2023-08-08T20:23:33.591Z,1.73
2023-08-08T20:26:03.585Z,2.23
2023-08-08T20:28:31.721Z,2.23
2023-08-08T20:30:59.721Z,1.70
2023-08-08T20:33:27.799Z,1.70
2023-08-08T20:35:55.729Z,2.00
2023-08-08T20:38:23.748Z,1.33
2023-08-08T20:40:53.089Z,1.57
2023-08-08T20:43:21.063Z,1.53
2023-08-08T20:45:49.004Z,1.10
2023-08-08T20:48:17.046Z,1.27
2023-08-08T20:50:44.959Z,1.40
2023-08-08T20:53:14.003Z,1.20
2023-08-08T20:55:42.031Z,1.30
2023-08-08T20:58:11.408Z,1.37
2023-08-08T21:00:39.368Z,1.20
2023-08-08T21:03:08.166Z,1.47
2023-08-08T21:05:36.253Z,1.50
2023-08-08T21:08:04.803Z,1.50
2023-08-08T21:10:32.973Z,1.80
2023-08-08T21:13:01.108Z,1.90
2023-08-08T21:15:30.395Z,1.33
2023-08-08T21:17:59.056Z,1.23
2023-08-08T21:20:27.169Z,1.20
2023-08-08T21:22:55.109Z,1.30
2023-08-08T21:25:23.295Z,1.43
2023-08-08T21:27:51.339Z,1.20
2023-08-08T21:30:19.270Z,1.20
2023-08-08T21:32:49.422Z,1.30
2023-08-08T21:35:17.710Z,1.30
2023-08-08T21:37:45.655Z,1.90
2023-08-08T21:40:13.727Z,1.20
2023-08-08T21:42:41.727Z,1.27
2023-08-08T21:45:10.604Z,1.40
2023-08-08T21:47:39.519Z,1.30
2023-08-08T21:50:09.952Z,1.63
2023-08-08T21:52:37.951Z,1.53
2023-08-08T21:55:06.588Z,1.90
2023-08-08T21:57:34.526Z,1.30
2023-08-08T22:00:02.522Z,1.70
2023-08-08T22:02:30.554Z,1.50
2023-08-08T22:04:58.492Z,1.70
2023-08-08T22:07:27.790Z,1.63
2023-08-08T22:09:55.884Z,1.43
2023-08-08T22:12:23.849Z,1.60
2023-08-08T22:14:51.771Z,1.50
2023-08-08T22:17:19.694Z,1.80
2023-08-08T22:19:47.694Z,1.47
2023-08-08T22:22:15.606Z,1.47
2023-08-08T22:24:44.925Z,1.53
2023-08-08T22:27:12.894Z,1.63
2023-08-08T22:29:40.918Z,1.30
2023-08-08T22:32:08.850Z,1.43
2023-08-08T22:34:36.813Z,1.60
2023-08-08T22:37:04.817Z,1.50
2023-08-08T22:39:32.778Z,1.50
2023-08-08T22:42:02.146Z,1.63
2023-08-08T22:44:30.051Z,1.40
2023-08-08T22:46:57.987Z,1.60
2023-08-08T22:49:25.856Z,1.30
2023-08-08T22:51:53.757Z,1.30
2023-08-08T22:54:22.037Z,1.30
2023-08-08T22:56:49.954Z,1.40
2023-08-08T22:59:19.249Z,1.53
2023-08-08T23:01:47.346Z,1.43
2023-08-08T23:04:15.370Z,1.50
2023-08-08T23:06:43.298Z,1.90
2023-08-08T23:09:11.458Z,1.83
2023-08-08T23:11:39.402Z,1.73
2023-08-08T23:14:07.315Z,1.63
2023-08-08T23:16:36.630Z,1.67
2023-08-08T23:19:04.851Z,1.57
2023-08-08T23:21:32.829Z,2.00
2023-08-08T23:24:00.809Z,1.50
2023-08-08T23:26:28.792Z,1.87
2023-08-08T23:28:57.049Z,1.50
2023-08-08T23:31:25.007Z,1.93
2023-08-08T23:33:54.409Z,2.10
2023-08-08T23:36:22.618Z,2.33
2023-08-08T23:38:50.574Z,2.30
2023-08-08T23:41:18.915Z,2.10
2023-08-08T23:43:46.814Z,2.37
2023-08-08T23:46:14.797Z,2.10
2023-08-08T23:48:43.416Z,2.30
2023-08-08T23:51:13.197Z,2.50
2023-08-08T23:53:41.112Z,2.30
2023-08-08T23:56:09.033Z,2.50
2023-08-08T23:58:36.921Z,2.73
